Time;durP1;ratioP1;P1;durP2;ratioP2;P2;SDS_P1;SDS_P2;PMS_P1;PMS_P2;Temp;Humidity;BMP_temperature;BMP_pressure;BME280_temperature;BME280_humidity;BME280_pressure;Samples;Min_cycle;Max_cycle;Signal;HPM_P1;HPM_P2
2022/08/23 00:02:18;;;;;;;0.60;0.60;;;;;;;26.95;48.37;94529.94;5054651;28;20249;-66
2022/08/23 00:04:51;;;;;;;0.70;0.70;;;;;;;26.86;48.53;94537.53;5068942;28;20211;-67
2022/08/23 00:07:42;;;;;;;1.37;1.27;;;;;;;26.57;49.26;94543.66;5041209;28;20197;-66
2022/08/23 00:10:11;;;;;;;1.53;1.43;;;;;;;26.27;49.96;94545.56;5055543;28;20280;-67
2022/08/23 00:12:39;;;;;;;1.83;1.20;;;;;;;26.00;50.59;94538.59;5068435;28;20760;-66
2022/08/23 00:15:07;;;;;;;1.47;1.37;;;;;;;26.06;50.77;94553.28;5068551;28;20295;-70
2022/08/23 00:17:35;;;;;;;1.53;1.13;;;;;;;26.25;49.68;94542.44;5064648;28;20192;-64
2022/08/23 00:20:07;;;;;;;0.57;0.57;;;;;;;26.37;49.66;94538.78;5040902;28;20189;-67
2022/08/23 00:22:35;;;;;;;0.40;0.40;;;;;;;26.61;49.20;94532.94;5064609;28;20247;-64
2022/08/23 00:25:03;;;;;;;0.70;0.70;;;;;;;26.74;48.72;94529.72;5062687;28;20252;-66
2022/08/23 00:27:30;;;;;;;8.33;1.23;;;;;;;26.80;48.67;94522.09;5042902;28;20575;-68
2022/08/23 00:29:57;;;;;;;1.70;1.47;;;;;;;26.63;48.92;94538.75;5052784;28;20204;-66
2022/08/23 00:32:30;;;;;;;1.70;1.30;;;;;;;26.59;49.38;94541.38;5067154;28;20219;-67
2022/08/23 00:34:59;;;;;;;0.90;0.90;;;;;;;26.61;49.30;94543.69;5072730;28;20192;-70
2022/08/23 00:37:28;;;;;;;1.63;1.53;;;;;;;26.54;49.23;94543.63;5072769;28;20231;-68
2022/08/23 00:39:54;;;;;;;1.03;0.60;;;;;;;26.46;49.59;94540.06;5047693;28;20619;-69
2022/08/23 00:48:00;;;;;;;1.07;1.03;;;;;;;26.40;49.78;94536.16;5053791;28;20682;-65
2022/08/23 00:50:51;;;;;;;1.50;1.40;;;;;;;26.25;49.82;94537.09;5044726;28;20201;-64
2022/08/23 00:53:22;;;;;;;5.43;2.10;;;;;;;26.36;49.79;94529.94;5057589;28;20302;-66
2022/08/23 00:55:56;;;;;;;1.10;1.00;;;;;;;26.33;49.67;94533.34;5042065;28;20239;-69
2022/08/23 00:58:24;;;;;;;1.50;1.40;;;;;;;26.38;49.73;94545.69;5045578;28;20199;-67
2022/08/23 01:00:54;;;;;;;1.10;0.73;;;;;;;26.40;49.46;94533.47;5072297;28;20199;-64
2022/08/23 01:03:25;;;;;;;0.63;0.63;;;;;;;26.30;49.76;94542.13;5072410;28;20227;-68
2022/08/23 01:06:29;;;;;;;1.27;1.20;;;;;;;26.10;50.37;94551.44;5047476;28;20239;-67
2022/08/23 01:09:01;;;;;;;1.43;1.30;;;;;;;26.30;49.80;94539.44;5068149;28;20211;-66
2022/08/23 01:11:38;;;;;;;1.30;1.23;;;;;;;26.04;50.23;94517.97;5072023;28;20200;-70
2022/08/23 01:14:16;;;;;;;1.50;1.07;;;;;;;26.36;49.71;94548.75;5057658;28;20195;-69
2022/08/23 01:16:56;;;;;;;2.83;1.90;;;;;;;26.24;50.03;94559.69;5071875;28;20195;-65
2022/08/23 01:19:48;;;;;;;0.80;0.80;;;;;;;25.81;51.03;94554.78;5071747;28;20233;-68
2022/08/23 01:22:41;;;;;;;2.60;1.57;;;;;;;25.85;51.36;94550.25;5070877;28;20238;-65
2022/08/23 01:25:13;;;;;;;1.57;1.47;;;;;;;25.74;51.37;94554.66;5052371;28;20705;-67
2022/08/23 01:27:44;;;;;;;1.20;1.10;;;;;;;25.69;51.22;94542.31;5064229;28;20627;-63
2022/08/23 01:30:19;;;;;;;1.17;1.17;;;;;;;25.76;51.43;94561.25;5050652;28;20200;-64
2022/08/23 01:32:50;;;;;;;1.60;1.50;;;;;;;25.82;51.48;94548.28;5038126;28;20470;-65
2022/08/23 01:35:19;;;;;;;1.67;1.57;;;;;;;25.59;51.85;94545.63;5060239;28;20235;-69
2022/08/23 01:37:51;;;;;;;0.93;0.87;;;;;;;25.59;51.28;94542.94;5035309;28;20201;-68
2022/08/23 01:40:19;;;;;;;1.00;0.70;;;;;;;25.74;50.92;94549.31;5056027;28;20236;-68
2022/08/23 01:42:48;;;;;;;0.70;0.70;;;;;;;25.72;51.01;94551.56;5051066;28;20251;-71
2022/08/23 01:45:15;;;;;;;0.73;0.73;;;;;;;25.25;52.07;94545.75;5053455;28;20220;-68
2022/08/23 01:47:44;;;;;;;0.50;0.50;;;;;;;25.21;52.87;94558.28;5060578;28;20995;-70
2022/08/23 01:50:12;;;;;;;1.17;1.17;;;;;;;25.46;52.05;94549.59;5036318;28;20231;-65
2022/08/23 01:52:43;;;;;;;0.73;0.73;;;;;;;25.48;51.99;94551.91;5061751;28;20215;-71
2022/08/23 01:55:16;;;;;;;0.90;0.90;;;;;;;25.42;51.73;94548.75;5064402;28;20682;-65
2022/08/23 01:57:45;;;;;;;0.60;0.60;;;;;;;25.68;51.37;94540.00;5049682;28;20196;-66
2022/08/23 02:00:18;;;;;;;0.80;0.80;;;;;;;25.49;51.91;94540.06;5066107;28;20246;-66
2022/08/23 02:02:45;;;;;;;0.57;0.57;;;;;;;25.57;51.64;94544.41;5066308;28;20203;-66
2022/08/23 02:05:13;;;;;;;0.63;0.63;;;;;;;25.88;50.89;94549.53;5080357;28;20643;-68
2022/08/23 02:07:46;;;;;;;0.83;0.83;;;;;;;25.69;51.36;94536.19;5066198;28;20235;-65
2022/08/23 02:10:13;;;;;;;5.47;1.83;;;;;;;25.94;50.52;94543.50;5049280;28;20211;-70
2022/08/23 02:12:40;;;;;;;1.50;1.27;;;;;;;25.81;51.10;94544.03;5054997;28;20734;-67
2022/08/23 02:15:14;;;;;;;1.17;1.07;;;;;;;26.12;50.50;94551.84;5057927;28;20246;-66
2022/08/23 02:17:43;;;;;;;1.80;1.33;;;;;;;25.97;50.79;94547.38;5070075;28;20200;-70
2022/08/23 02:20:10;;;;;;;1.03;0.83;;;;;;;25.90;50.75;94552.63;5070490;28;20199;-66
2022/08/23 02:22:38;;;;;;;2.50;1.30;;;;;;;25.90;50.91;94544.56;5033315;28;20197;-70
2022/08/23 02:25:06;;;;;;;0.30;0.30;;;;;;;26.04;50.44;94536.75;5039220;28;20204;-67
2022/08/23 02:27:33;;;;;;;1.07;0.97;;;;;;;26.01;50.60;94535.56;5051704;28;20201;-67
2022/08/23 02:30:00;;;;;;;1.00;0.97;;;;;;;26.24;49.78;94534.75;5049235;28;20201;-70
2022/08/23 02:32:28;;;;;;;0.50;0.50;;;;;;;26.16;49.89;94536.56;5052352;28;20774;-66
2022/08/23 02:34:56;;;;;;;0.80;0.80;;;;;;;26.49;49.55;94535.88;5068934;28;20209;-67
2022/08/23 02:37:33;;;;;;;0.90;0.90;;;;;;;26.68;48.52;94539.22;5035414;28;20201;-66
2022/08/23 02:40:00;;;;;;;1.60;1.50;;;;;;;26.82;48.20;94541.31;5061781;28;20722;-69
2022/08/23 02:42:28;;;;;;;0.50;0.50;;;;;;;26.65;48.04;94549.91;5048158;28;20294;-67
2022/08/23 02:44:55;;;;;;;0.73;0.73;;;;;;;26.71;47.91;94545.78;5079643;28;20228;-70
2022/08/23 02:47:22;;;;;;;2.03;1.43;;;;;;;26.54;48.36;94549.78;5061778;28;20200;-65
2022/08/23 02:50:06;;;;;;;1.10;1.00;;;;;;;26.62;48.24;94545.25;5029002;28;20212;-65
2022/08/23 02:52:34;;;;;;;1.47;1.37;;;;;;;26.90;47.64;94543.72;5040380;28;20204;-66
2022/08/23 02:55:01;;;;;;;0.60;0.60;;;;;;;26.36;48.10;94543.38;5047979;28;20210;-63
2022/08/23 02:57:28;;;;;;;1.00;0.93;;;;;;;26.82;47.33;94539.38;5043437;28;20582;-67
2022/08/23 03:00:00;;;;;;;1.17;1.17;;;;;;;26.75;47.23;94533.94;5054600;28;20213;-65
2022/08/23 03:02:29;;;;;;;1.63;1.10;;;;;;;27.35;46.25;94533.88;5057242;28;20208;-66
2022/08/23 03:04:57;;;;;;;1.00;1.00;;;;;;;27.23;46.29;94520.63;5043645;28;20924;-67
2022/08/23 03:07:24;;;;;;;0.70;0.70;;;;;;;27.39;46.10;94532.00;5046702;28;20192;-67
2022/08/23 03:09:51;;;;;;;1.07;0.93;;;;;;;27.43;45.95;94527.41;5039254;28;20204;-69
2022/08/23 03:12:18;;;;;;;0.67;0.60;;;;;;;27.39;45.87;94530.06;5059607;28;20606;-71
2022/08/23 03:14:50;;;;;;;0.83;0.60;;;;;;;27.50;45.52;94522.09;5064539;28;20278;-68
2022/08/23 03:17:19;;;;;;;2.00;1.03;;;;;;;27.53;45.23;94527.50;5049994;28;20201;-67
2022/08/23 03:19:47;;;;;;;0.53;0.53;;;;;;;27.52;45.13;94520.56;5067985;28;20287;-70
2022/08/23 03:22:14;;;;;;;0.50;0.50;;;;;;;27.50;45.22;94527.47;5067471;28;20287;-66
2022/08/23 03:24:41;;;;;;;0.90;0.90;;;;;;;27.36;45.18;94530.81;5054990;28;20191;-68
2022/08/23 03:27:09;;;;;;;0.43;0.43;;;;;;;27.22;45.69;94524.47;5055228;28;20211;-67
2022/08/23 03:29:38;;;;;;;0.90;0.90;;;;;;;26.97;46.37;94530.34;5053143;28;20213;-70
2022/08/23 03:32:06;;;;;;;1.17;1.07;;;;;;;27.17;46.15;94532.88;5068063;28;20211;-68
2022/08/23 03:34:36;;;;;;;3.77;1.67;;;;;;;27.11;46.27;94523.59;5053489;28;20281;-68
2022/08/23 03:37:05;;;;;;;0.63;0.63;;;;;;;26.99;46.68;94525.38;5056793;28;20197;-65
2022/08/23 03:39:33;;;;;;;3.57;2.07;;;;;;;26.79;47.11;94537.44;5050919;28;20646;-66
2022/08/23 03:42:00;;;;;;;0.30;0.30;;;;;;;27.10;46.63;94538.94;5048612;28;20665;-69
2022/08/23 03:44:31;;;;;;;1.23;1.10;;;;;;;26.75;47.23;94533.94;5060219;28;20204;-65
2022/08/23 03:46:58;;;;;;;0.60;0.60;;;;;;;26.89;46.81;94552.94;5059025;28;20199;-64
2022/08/23 03:49:26;;;;;;;0.70;0.70;;;;;;;26.61;47.33;94554.44;5069633;28;20640;-70
2022/08/23 03:51:55;;;;;;;1.03;0.93;;;;;;;26.76;46.92;94556.22;5035444;28;20181;-69
2022/08/23 03:54:22;;;;;;;0.67;0.67;;;;;;;26.59;47.22;94557.50;5035765;28;20220;-67
2022/08/23 03:57:01;;;;;;;3.20;1.67;;;;;;;26.73;46.81;94567.72;5049585;28;20204;-68
2022/08/23 03:59:34;;;;;;;0.77;0.77;;;;;;;26.34;47.47;94572.53;5054318;28;20205;-65
2022/08/23 04:02:06;;;;;;;0.33;0.33;;;;;;;26.57;46.76;94575.91;5043636;28;20200;-68
2022/08/23 04:04:34;;;;;;;4.70;1.13;;;;;;;26.38;47.13;94581.41;5041216;28;20202;-69
2022/08/23 04:07:21;;;;;;;0.37;0.37;;;;;;;26.31;46.74;94589.38;5067327;28;20286;-69
2022/08/23 04:09:52;;;;;;;1.17;1.07;;;;;;;26.58;46.59;94582.06;5066884;28;20292;-68
2022/08/23 04:12:23;;;;;;;0.63;0.63;;;;;;;26.72;46.36;94593.81;5067118;28;20207;-71
2022/08/23 04:14:52;;;;;;;0.83;0.83;;;;;;;26.59;46.63;94587.06;5066614;28;20713;-67
2022/08/23 04:17:20;;;;;;;1.13;1.00;;;;;;;26.75;46.37;94586.94;5040034;28;20201;-66
2022/08/23 04:19:49;;;;;;;0.20;0.20;;;;;;;26.28;46.81;94595.44;5036683;28;20196;-65
2022/08/23 04:22:19;;;;;;;0.70;0.70;;;;;;;26.52;46.91;94595.03;5044331;28;20251;-72
2022/08/23 04:24:46;;;;;;;0.80;0.73;;;;;;;26.41;46.77;94588.72;5039958;28;20208;-64
2022/08/23 04:27:14;;;;;;;0.30;0.30;;;;;;;26.10;47.71;94593.63;5045082;28;20192;-67
2022/08/23 04:29:43;;;;;;;0.60;0.60;;;;;;;26.03;47.98;94599.63;5046260;28;20224;-67
2022/08/23 04:32:10;;;;;;;1.13;1.13;;;;;;;26.48;46.76;94599.56;5058638;28;20208;-71
2022/08/23 04:34:39;;;;;;;0.30;0.30;;;;;;;26.62;46.30;94594.41;5056834;28;20221;-71
2022/08/23 04:37:11;;;;;;;0.80;0.80;;;;;;;26.66;46.06;94594.47;5037920;28;20338;-67
2022/08/23 04:42:38;;;;;;;0.23;0.23;;;;;;;26.48;45.83;94599.56;5032944;28;20294;-70
2022/08/23 04:45:07;;;;;;;1.93;1.53;;;;;;;26.54;45.79;94595.44;5048254;28;20212;-68
2022/08/23 04:47:39;;;;;;;6.27;5.43;;;;;;;26.39;45.66;94596.38;5064283;28;20663;-67
2022/08/23 04:50:09;;;;;;;1.07;1.07;;;;;;;26.68;45.12;94603.72;5053728;28;20228;-68
2022/08/23 04:52:55;;;;;;;2.20;1.70;;;;;;;26.51;45.05;94604.25;5048668;28;20205;-71
2022/08/23 04:55:22;;;;;;;1.90;1.80;;;;;;;26.72;44.73;94615.31;5047497;28;20258;-72
2022/08/23 04:57:56;;;;;;;5.00;3.07;;;;;;;26.33;45.38;94619.31;5037825;28;20605;-74
2022/08/23 05:00:27;;;;;;;0.50;0.50;;;;;;;26.75;44.68;94621.88;5043526;28;20615;-69
2022/08/23 05:02:56;;;;;;;0.97;0.93;;;;;;;26.75;44.66;94619.94;5030360;28;20200;-68
2022/08/23 05:05:26;;;;;;;0.50;0.50;;;;;;;26.73;44.51;94632.97;5064136;28;20662;-66
2022/08/23 05:07:53;;;;;;;0.57;0.57;;;;;;;26.65;45.07;94633.22;5049437;28;20200;-68
2022/08/23 05:10:20;;;;;;;4.23;0.77;;;;;;;26.78;44.45;94639.97;5053354;28;20258;-67
2022/08/23 05:12:51;;;;;;;0.70;0.70;;;;;;;26.81;45.15;94626.56;5049921;28;20591;-70
2022/08/23 05:15:19;;;;;;;3.33;3.13;;;;;;;27.00;45.53;94639.91;5046826;28;20223;-72
2022/08/23 05:17:53;;;;;;;4.70;3.33;;;;;;;27.14;45.35;94635.81;5074214;28;20267;-69
2022/08/23 05:20:20;;;;;;;0.40;0.40;;;;;;;27.01;45.21;94644.13;5073347;28;20247;-67
2022/08/23 05:22:47;;;;;;;0.63;0.33;;;;;;;27.07;44.79;94635.72;5090286;28;20195;-67
2022/08/23 05:25:48;;;;;;;0.93;0.87;;;;;;;27.16;44.28;94637.00;5067978;28;20231;-66
2022/08/23 05:28:31;;;;;;;0.70;0.67;;;;;;;27.46;43.78;94642.38;5070032;28;20667;-72
2022/08/23 05:31:04;;;;;;;0.30;0.30;;;;;;;27.49;43.84;94638.94;5078508;28;20199;-67
2022/08/23 05:33:51;;;;;;;0.23;0.23;;;;;;;27.26;44.24;94639.06;5060170;28;20264;-70
2022/08/23 05:36:28;;;;;;;0.70;0.70;;;;;;;27.17;44.62;94643.16;5041345;28;20288;-71
2022/08/23 05:38:55;;;;;;;0.40;0.40;;;;;;;27.25;44.16;94636.72;5067811;28;20200;-70
2022/08/23 05:41:23;;;;;;;0.97;0.97;;;;;;;27.18;44.04;94639.31;5055739;28;20279;-69
2022/08/23 05:44:09;;;;;;;0.70;0.70;;;;;;;27.41;43.73;94634.66;5051637;28;20235;-71
2022/08/23 05:46:41;;;;;;;5.90;1.63;;;;;;;27.56;43.43;94636.34;5049986;28;20265;-71
2022/08/23 05:49:35;;;;;;;1.20;1.03;;;;;;;27.37;44.00;94628.44;5059934;28;20203;-71
2022/08/23 05:52:04;;;;;;;0.77;0.67;;;;;;;27.37;43.84;94641.91;5054061;28;20203;-70
2022/08/23 05:54:33;;;;;;;2.53;1.13;;;;;;;27.25;44.15;94636.72;5050782;28;20216;-70
2022/08/23 05:57:26;;;;;;;0.23;0.23;;;;;;;27.52;43.69;94635.53;5052726;28;20759;-70
2022/08/23 05:59:53;;;;;;;0.20;0.20;;;;;;;27.56;43.35;94636.34;5071327;28;20211;-69
2022/08/23 06:02:20;;;;;;;0.30;0.30;;;;;;;27.27;44.64;94647.88;5072405;28;20766;-70
2022/08/23 06:04:47;;;;;;;0.53;0.53;;;;;;;27.72;44.27;94650.34;5047866;28;20252;-70
2022/08/23 06:07:15;;;;;;;1.17;0.80;;;;;;;27.84;43.73;94650.09;5059332;28;20652;-72
2022/08/23 06:09:42;;;;;;;1.60;0.57;;;;;;;27.44;44.42;94660.81;5049868;28;20196;-71
2022/08/23 06:12:10;;;;;;;0.30;0.30;;;;;;;27.37;44.32;94658.06;5067664;28;20246;-71
2022/08/23 06:14:37;;;;;;;1.57;1.47;;;;;;;27.55;43.81;94646.34;5049606;28;20209;-70
2022/08/23 06:17:04;;;;;;;1.17;1.07;;;;;;;27.45;43.44;94619.28;5064149;28;20192;-71
2022/08/23 06:19:32;;;;;;;0.20;0.20;;;;;;;27.87;43.05;94652.03;5042188;28;20220;-70
2022/08/23 06:22:29;;;;;;;0.50;0.50;;;;;;;27.86;42.59;94662.03;5042122;28;20212;-71
2022/08/23 06:24:56;;;;;;;0.50;0.50;;;;;;;27.60;42.91;94656.00;5054993;28;20871;-72
2022/08/23 06:27:40;;;;;;;0.87;0.87;;;;;;;27.73;43.14;94674.22;5050789;28;20228;-69
2022/08/23 06:30:08;;;;;;;0.50;0.50;;;;;;;27.87;42.53;94671.69;5074785;28;20204;-71
2022/08/23 06:32:45;;;;;;;0.40;0.40;;;;;;;27.96;41.99;94666.00;5055387;28;20228;-70
2022/08/23 06:35:35;;;;;;;0.43;0.43;;;;;;;28.38;41.26;94671.78;5055228;28;20355;-71
2022/08/23 06:38:28;;;;;;;0.40;0.40;;;;;;;28.11;41.58;94672.31;5042588;28;20642;-69
2022/08/23 06:41:10;;;;;;;0.60;0.60;;;;;;;27.73;42.82;94668.06;5040407;28;20217;-69
2022/08/23 06:44:02;;;;;;;0.50;0.50;;;;;;;27.32;44.42;94669.91;5065560;28;20274;-70
2022/08/23 06:46:49;;;;;;;1.17;0.80;;;;;;;28.15;42.73;94673.13;5058991;28;20271;-69
2022/08/23 06:49:17;;;;;;;1.10;0.27;;;;;;;27.75;43.88;94671.94;5057301;28;20606;-67
2022/08/23 06:51:47;;;;;;;0.70;0.70;;;;;;;28.50;41.22;94674.16;5041057;28;20577;-69
2022/08/23 06:54:20;;;;;;;0.57;0.57;;;;;;;28.92;40.70;94682.59;5068683;28;20230;-68
2022/08/23 06:56:59;;;;;;;0.90;0.90;;;;;;;28.83;41.33;94676.75;5034954;28;20319;-69
2022/08/23 06:59:40;;;;;;;0.40;0.40;;;;;;;28.35;42.18;94687.91;5045509;28;20219;-69
2022/08/23 07:02:24;;;;;;;0.20;0.20;;;;;;;28.85;41.06;94690.63;5053936;28;20306;-69
2022/08/23 07:05:15;;;;;;;0.20;0.20;;;;;;;28.51;41.45;94681.13;5054169;28;20220;-70
2022/08/23 07:08:04;;;;;;;0.53;0.53;;;;;;;28.75;42.31;94680.56;5065213;28;20305;-68
2022/08/23 07:10:32;;;;;;;0.20;0.20;;;;;;;28.89;40.85;94672.56;5063602;28;20651;-68
2022/08/23 07:13:01;;;;;;;1.37;0.70;;;;;;;28.79;40.37;94681.38;5058622;28;20227;-69
2022/08/23 07:15:28;;;;;;;0.40;0.40;;;;;;;29.20;40.93;94684.69;5067636;28;20960;-69
2022/08/23 07:17:55;;;;;;;1.37;1.27;;;;;;;29.46;40.04;94686.38;5042855;28;20249;-68
2022/08/23 07:20:22;;;;;;;0.87;0.83;;;;;;;29.53;39.81;94691.78;5069554;28;20210;-70
2022/08/23 07:22:49;;;;;;;0.67;0.50;;;;;;;29.44;39.45;94689.44;5068484;28;20242;-68
2022/08/23 07:25:16;;;;;;;0.87;0.80;;;;;;;29.39;39.63;94678.25;5056249;28;20570;-68
2022/08/23 07:27:47;;;;;;;0.83;0.83;;;;;;;29.18;40.32;94691.66;5050458;28;20220;-68
2022/08/23 07:30:18;;;;;;;0.83;0.80;;;;;;;29.08;40.96;94687.69;5049351;28;20201;-70
2022/08/23 07:32:45;;;;;;;1.53;0.63;;;;;;;29.03;41.41;94671.88;5050310;28;20562;-69
2022/08/23 07:35:18;;;;;;;0.70;0.70;;;;;;;30.04;39.92;94684.25;5074960;28;20284;-68
2022/08/23 07:37:49;;;;;;;0.60;0.60;;;;;;;29.86;39.56;94683.44;5051035;28;20200;-68
2022/08/23 07:40:17;;;;;;;0.40;0.40;;;;;;;30.13;38.78;94690.06;5057742;28;20188;-69
2022/08/23 07:42:48;;;;;;;3.23;1.90;;;;;;;29.79;39.24;94688.84;5036111;28;20323;-68
2022/08/23 07:45:17;;;;;;;1.07;0.90;;;;;;;29.78;39.14;94690.00;5035970;28;20220;-68
2022/08/23 07:47:50;;;;;;;2.93;1.30;;;;;;;29.84;39.36;94699.25;5067615;28;20303;-68
2022/08/23 07:50:17;;;;;;;0.77;0.50;;;;;;;29.80;39.17;94691.16;5054065;28;20647;-69
2022/08/23 07:52:45;;;;;;;0.37;0.37;;;;;;;29.75;39.34;94688.03;5054095;28;20639;-69
2022/08/23 07:55:13;;;;;;;1.07;0.90;;;;;;;29.78;39.26;94698.84;5031768;28;20270;-68
2022/08/23 07:58:00;;;;;;;1.70;1.47;;;;;;;28.99;40.77;94696.13;5039267;28;20251;-68
2022/08/23 08:00:34;;;;;;;1.00;1.00;;;;;;;29.04;40.68;94703.09;5052281;28;20465;-69
2022/08/23 08:03:21;;;;;;;1.33;1.23;;;;;;;29.68;39.85;94709.59;5042415;28;20200;-69
2022/08/23 08:06:25;;;;;;;0.83;0.83;;;;;;;29.49;40.35;94701.81;5040732;28;20768;-68
2022/08/23 08:08:53;;;;;;;1.20;0.90;;;;;;;28.82;40.41;94702.19;5061229;28;20234;-69
2022/08/23 08:11:23;;;;;;;1.50;1.33;;;;;;;29.81;39.71;94708.13;5073200;28;20302;-69
2022/08/23 08:13:51;;;;;;;1.67;1.57;;;;;;;29.71;39.79;94711.56;5037740;28;20213;-68
2022/08/23 08:16:31;;;;;;;0.27;0.27;;;;;;;29.84;39.74;94713.53;5056359;28;20197;-68
2022/08/23 08:19:02;;;;;;;1.10;1.10;;;;;;;29.96;39.30;94714.34;5045543;28;20196;-69
2022/08/23 08:21:38;;;;;;;1.23;1.13;;;;;;;29.99;38.85;94717.06;5068924;28;20279;-69
2022/08/23 08:24:18;;;;;;;0.80;0.80;;;;;;;30.07;38.64;94721.34;5039252;28;20830;-68
2022/08/23 08:27:11;;;;;;;0.53;0.53;;;;;;;29.84;38.68;94712.75;5067006;28;20628;-68
2022/08/23 08:29:39;;;;;;;1.90;1.43;;;;;;;29.96;38.31;94717.06;5066587;28;20664;-68
2022/08/23 08:32:07;;;;;;;0.50;0.50;;;;;;;30.21;38.13;94715.94;5056039;28;20245;-69
2022/08/23 08:34:40;;;;;;;0.77;0.77;;;;;;;30.23;37.98;94710.94;5068287;28;20308;-68
2022/08/23 08:37:08;;;;;;;2.30;0.73;;;;;;;30.24;37.75;94715.16;5044174;28;20189;-69
2022/08/23 08:39:35;;;;;;;1.10;1.10;;;;;;;30.13;38.25;94708.22;5063082;28;20627;-68
2022/08/23 08:42:37;;;;;;;0.50;0.50;;;;;;;29.56;39.64;94723.44;5050845;28;20209;-68
2022/08/23 08:45:13;;;;;;;1.80;1.40;;;;;;;30.21;38.11;94715.16;5015147;28;20205;-69
2022/08/23 08:47:44;;;;;;;0.20;0.20;;;;;;;29.67;39.53;94718.88;5062156;28;20689;-69
2022/08/23 08:50:19;;;;;;;0.67;0.67;;;;;;;29.59;40.11;94715.38;5062249;28;20204;-69
2022/08/23 08:53:26;;;;;;;5.17;2.37;;;;;;;30.05;39.69;94710.13;5047934;28;20251;-69
2022/08/23 08:56:20;;;;;;;0.60;0.60;;;;;;;29.90;39.84;94711.25;5039286;28;20221;-67
2022/08/23 08:59:11;;;;;;;0.93;0.93;;;;;;;29.97;39.31;94695.06;5063856;28;20276;-69
2022/08/23 09:01:40;;;;;;;1.23;0.97;;;;;;;30.10;38.36;94693.53;5080876;28;20690;-68
2022/08/23 09:04:07;;;;;;;4.80;4.20;;;;;;;30.45;38.45;94692.81;5045629;28;20658;-67
2022/08/23 09:06:53;;;;;;;3.40;2.37;;;;;;;30.24;38.89;94687.34;5055236;28;20257;-68
2022/08/23 09:09:49;;;;;;;1.60;1.50;;;;;;;29.54;39.52;94687.94;5047688;28;20262;-67
2022/08/23 09:12:34;;;;;;;0.70;0.70;;;;;;;30.01;38.62;94674.22;5061580;28;20212;-68
2022/08/23 09:15:31;;;;;;;0.60;0.60;;;;;;;29.44;40.01;94683.28;5070804;28;20241;-72
2022/08/23 09:18:08;;;;;;;1.50;1.40;;;;;;;30.30;38.60;94675.81;5062517;28;20191;-69
2022/08/23 09:20:39;;;;;;;1.53;1.43;;;;;;;29.54;39.35;94687.94;5039919;28;20236;-71
2022/08/23 09:23:21;;;;;;;3.03;1.80;;;;;;;29.45;39.87;94690.22;5039505;28;20782;-70
2022/08/23 09:26:01;;;;;;;0.97;0.83;;;;;;;29.59;39.69;94671.38;5050675;28;20599;-70
2022/08/23 09:28:36;;;;;;;1.20;0.97;;;;;;;30.08;39.13;94685.03;5052337;28;20281;-70
2022/08/23 09:31:06;;;;;;;4.43;2.50;;;;;;;30.16;38.87;94683.91;5063575;28;20284;-68
2022/08/23 09:33:44;;;;;;;1.63;1.53;;;;;;;30.69;38.16;94682.00;5050456;28;20390;-69
2022/08/23 09:36:44;;;;;;;7.37;1.00;;;;;;;30.88;37.83;94678.91;5046519;28;20313;-69
2022/08/23 09:39:30;;;;;;;1.13;1.03;;;;;;;31.12;36.96;94676.53;5056268;28;20207;-70
2022/08/23 09:42:07;;;;;;;2.10;1.67;;;;;;;31.07;38.65;94674.25;5060100;28;20204;-69
2022/08/23 09:44:39;;;;;;;5.27;1.80;;;;;;;30.95;37.29;94671.97;5037306;28;20283;-68
2022/08/23 09:47:15;;;;;;;1.50;1.40;;;;;;;30.98;36.90;94676.59;5066581;28;20204;-68
2022/08/23 09:49:50;;;;;;;0.93;0.93;;;;;;;30.55;37.97;94673.88;5032768;28;20254;-69
2022/08/23 09:52:37;;;;;;;0.80;0.70;;;;;;;31.47;36.70;94671.03;5054958;28;20304;-69
2022/08/23 09:55:10;;;;;;;1.30;1.30;;;;;;;31.76;35.54;94669.75;5068464;28;20263;-69
2022/08/23 09:57:46;;;;;;;0.43;0.43;;;;;;;31.54;36.34;94681.84;5055057;28;20196;-67
2022/08/23 10:00:24;;;;;;;4.10;2.00;;;;;;;31.64;36.60;94681.03;5066243;28;20300;-68
2022/08/23 10:02:56;;;;;;;1.73;1.63;;;;;;;31.59;36.03;94681.44;5051385;28;20203;-68
2022/08/23 10:05:34;;;;;;;1.10;1.00;;;;;;;30.95;36.91;94685.50;5064226;28;20654;-69
2022/08/23 10:08:03;;;;;;;0.90;0.90;;;;;;;30.55;36.87;94682.00;5039307;28;20204;-69
2022/08/23 10:10:51;;;;;;;1.47;1.37;;;;;;;31.36;35.27;94664.91;5069119;28;20199;-68
2022/08/23 10:13:27;;;;;;;1.23;1.13;;;;;;;31.33;35.97;94673.78;5045890;28;20189;-68
2022/08/23 10:16:01;;;;;;;1.40;1.30;;;;;;;31.62;36.61;94675.25;5065120;28;20216;-69
2022/08/23 10:18:37;;;;;;;1.90;1.63;;;;;;;31.63;34.71;94684.91;5049408;28;20223;-67
2022/08/23 10:21:17;;;;;;;0.67;0.67;;;;;;;31.99;34.84;94674.69;5066114;28;20204;-68
2022/08/23 10:24:04;;;;;;;1.13;1.00;;;;;;;32.33;33.88;94667.50;5063182;28;20670;-68
2022/08/23 10:26:34;;;;;;;1.90;1.67;;;;;;;32.11;34.26;94675.00;5053946;28;20261;-70
2022/08/23 10:29:40;;;;;;;0.73;0.73;;;;;;;32.04;33.90;94672.34;5063707;28;20207;-68
2022/08/23 10:32:18;;;;;;;1.23;1.23;;;;;;;32.49;33.48;94665.84;5048273;28;20672;-69
2022/08/23 10:35:02;;;;;;;5.57;1.03;;;;;;;31.66;34.89;94665.16;5055300;28;20714;-68
2022/08/23 10:37:47;;;;;;;0.83;0.83;;;;;;;32.78;33.98;94650.84;5041986;28;20276;-67
2022/08/23 10:40:33;;;;;;;1.03;0.93;;;;;;;32.78;33.72;94650.06;5057780;28;20214;-69
2022/08/23 10:43:14;;;;;;;1.33;1.23;;;;;;;32.52;33.04;94648.75;5040624;28;20231;-68
2022/08/23 10:45:45;;;;;;;0.87;0.87;;;;;;;32.40;32.57;94646.50;5056970;28;20201;-67
2022/08/23 10:48:30;;;;;;;2.00;1.33;;;;;;;32.73;33.05;94648.59;5034873;28;20255;-68
2022/08/23 10:51:16;;;;;;;0.70;0.70;;;;;;;33.16;33.40;94642.72;5052826;28;20213;-68
2022/08/23 10:54:07;;;;;;;6.40;1.27;;;;;;;33.36;33.45;94651.81;5044285;28;20214;-69
2022/08/23 10:56:35;;;;;;;0.70;0.70;;;;;;;33.67;32.51;94646.00;5042219;28;20245;-68
2022/08/23 10:59:20;;;;;;;1.17;1.07;;;;;;;33.23;31.95;94637.22;5040937;28;20196;-68
2022/08/23 11:02:03;;;;;;;1.17;1.07;;;;;;;33.46;32.95;94645.50;5067847;28;20261;-68
2022/08/23 11:04:55;;;;;;;3.47;1.83;;;;;;;33.39;32.33;94651.00;5073967;28;20192;-69
2022/08/23 11:07:28;;;;;;;1.13;1.03;;;;;;;32.70;31.63;94646.66;5063635;28;20197;-67
2022/08/23 11:10:15;;;;;;;0.40;0.40;;;;;;;32.86;31.51;94656.22;5048490;28;20647;-68
2022/08/23 11:13:09;;;;;;;0.73;0.73;;;;;;;32.83;32.02;94646.91;5064935;28;20195;-67
2022/08/23 11:15:42;;;;;;;0.80;0.80;;;;;;;32.74;32.71;94655.53;5036464;28;20659;-67
2022/08/23 11:18:47;;;;;;;1.03;1.03;;;;;;;32.78;33.14;94650.06;5064940;28;20261;-69
2022/08/23 11:21:24;;;;;;;1.63;1.53;;;;;;;32.73;33.53;94647.81;5052463;28;20211;-69
2022/08/23 11:23:57;;;;;;;1.83;1.57;;;;;;;32.79;33.67;94646.94;5064671;28;20210;-68
2022/08/23 11:26:36;;;;;;;0.90;0.90;;;;;;;33.02;33.70;94642.88;5064908;28;20730;-69
2022/08/23 11:29:07;;;;;;;2.23;1.40;;;;;;;33.19;32.62;94647.38;5064927;28;20204;-68
2022/08/23 11:31:55;;;;;;;0.43;0.43;;;;;;;33.37;32.36;94650.66;5065092;28;20192;-67
2022/08/23 11:34:24;;;;;;;1.07;1.07;;;;;;;33.04;32.58;94641.31;5044606;28;20205;-68
2022/08/23 11:37:18;;;;;;;3.47;1.73;;;;;;;33.14;32.84;94645.09;5039193;28;20247;-68
2022/08/23 11:39:56;;;;;;;1.83;1.73;;;;;;;33.59;32.31;94635.66;5062302;28;20716;-70
2022/08/23 11:42:50;;;;;;;0.83;0.83;;;;;;;34.19;30.75;94632.88;5060603;28;20308;-67
2022/08/23 11:45:27;;;;;;;0.60;0.60;;;;;;;34.48;30.81;94630.50;5059176;28;20236;-66
2022/08/23 11:48:23;;;;;;;0.53;0.53;;;;;;;35.02;29.83;94622.97;5061848;28;20203;-68
2022/08/23 11:50:50;;;;;;;1.00;0.90;;;;;;;34.85;30.41;94624.03;5052561;28;20209;-68
2022/08/23 11:53:41;;;;;;;2.80;1.97;;;;;;;34.56;30.21;94640.84;5047142;28;20192;-68
2022/08/23 11:56:39;;;;;;;0.93;0.90;;;;;;;34.67;31.46;94630.56;5039445;28;20708;-68
2022/08/23 11:59:33;;;;;;;0.73;0.73;;;;;;;34.53;29.82;94633.53;5043057;28;20199;-69
2022/08/23 12:02:30;;;;;;;0.97;0.97;;;;;;;35.05;29.91;94633.03;5065611;28;20205;-68
2022/08/23 12:05:19;;;;;;;4.70;1.93;;;;;;;34.70;30.54;94635.19;5061426;28;20203;-69
2022/08/23 12:08:15;;;;;;;1.20;1.10;;;;;;;34.79;30.39;94631.13;5068679;28;20198;-68
2022/08/23 12:10:42;;;;;;;1.13;0.87;;;;;;;34.54;31.10;94635.03;5036792;28;20227;-67
2022/08/23 12:13:18;;;;;;;0.47;0.47;;;;;;;34.72;31.68;94635.53;5048876;28;20248;-69
2022/08/23 12:16:09;;;;;;;1.40;1.00;;;;;;;34.86;31.62;94628.28;5044215;28;20278;-67
2022/08/23 12:18:45;;;;;;;0.50;0.50;;;;;;;34.63;32.02;94629.09;5056192;28;20198;-69
2022/08/23 12:21:45;;;;;;;0.87;0.53;;;;;;;34.37;32.45;94627.94;5041571;28;20808;-69